Time;durP1;ratioP1;P1;durP2;ratioP2;P2;SDS_P1;SDS_P2;PMS_P1;PMS_P2;Temp;Humidity;BMP_temperature;BMP_pressure;BME280_temperature;BME280_humidity;BME280_pressure;Samples;Min_cycle;Max_cycle;Signal;HPM_P1;HPM_P2
2021/04/12 00:01:21;;;;;;;20.32;9.73;;;;;;;8.23;65.55;99009.44;4318397;81;21349;-84
2021/04/12 00:07:37;;;;;;;16.75;9.93;;;;;;;7.98;66.34;99010.26;4318120;81;21186;-84
2021/04/12 00:14:16;;;;;;;22.95;13.45;;;;;;;7.83;66.74;99006.42;4315520;81;21328;-84
2021/04/12 00:20:35;;;;;;;18.23;11.08;;;;;;;7.65;67.14;99010.70;4317360;81;21555;-84
2021/04/12 00:27:03;;;;;;;15.83;11.15;;;;;;;7.44;67.72;99012.13;4321746;81;21151;-84
2021/04/12 00:39:45;;;;;;;16.62;10.85;;;;;;;7.13;68.43;99003.42;4470743;78;23499;-84
2021/04/12 00:46:20;;;;;;;21.75;11.95;;;;;;;6.92;68.91;99002.87;4384606;80;21159;-84
2021/04/12 00:52:36;;;;;;;16.85;10.00;;;;;;;6.76;69.30;98991.22;4395306;80;21194;-84
2021/04/12 00:59:07;;;;;;;16.32;10.95;;;;;;;6.60;69.53;98991.76;4388301;80;21230;-84
2021/04/12 01:05:21;;;;;;;22.98;12.05;;;;;;;6.54;70.16;98993.16;4357056;80;21572;-83
2021/04/12 01:12:03;;;;;;;18.92;11.30;;;;;;;6.46;70.30;98985.94;4378679;80;21171;-84
2021/04/12 01:18:52;;;;;;;15.35;8.88;;;;;;;6.30;70.74;98981.02;4389375;80;21181;-84
2021/04/12 01:25:29;;;;;;;19.98;11.40;;;;;;;6.13;70.73;98978.61;4390617;80;21195;-84
2021/04/12 01:32:01;;;;;;;18.20;10.77;;;;;;;5.91;71.27;98980.49;4387410;80;21922;-86
2021/04/12 01:38:29;;;;;;;15.65;8.83;;;;;;;5.80;71.93;98979.36;4391299;80;21670;-84
2021/04/12 01:44:45;;;;;;;17.12;10.82;;;;;;;5.77;72.49;98982.77;4386521;79;22955;-84
2021/04/12 01:51:10;;;;;;;;;;;;;;;5.58;72.11;98978.50;4335968;81;21160;-83
2021/04/12 01:57:43;;;;;;;19.82;13.32;;;;;;;5.35;72.91;98969.27;4328434;80;20226;-84
2021/04/12 02:04:07;;;;;;;21.07;11.55;;;;;;;5.16;73.04;98965.77;4332120;81;21122;-84
2021/04/12 02:10:37;;;;;;;20.12;13.32;;;;;;;5.20;73.50;98969.96;4330379;81;21159;-84
2021/04/12 02:17:06;;;;;;;18.27;13.72;;;;;;;5.19;73.45;98977.30;4332684;80;21584;-83
2021/04/12 02:23:59;;;;;;;18.95;13.85;;;;;;;5.14;73.83;98968.03;4337415;81;21940;-84
2021/04/12 02:30:49;;;;;;;18.92;11.00;;;;;;;5.12;74.15;98972.99;4330015;81;21153;-84
2021/04/12 02:37:46;;;;;;;21.00;11.25;;;;;;;4.99;74.02;98967.36;4342058;81;21551;-83
2021/04/12 02:44:00;;;;;;;17.00;9.63;;;;;;;4.75;74.40;98958.64;4346346;81;21212;-84
2021/04/12 02:50:10;;;;;;;20.90;11.43;;;;;;;4.79;74.64;98951.98;4331903;81;21180;-84
2021/04/12 02:56:50;;;;;;;22.85;12.33;;;;;;;4.80;74.94;98957.63;4345677;81;21181;-84
2021/04/12 03:03:09;;;;;;;16.30;9.28;;;;;;;4.77;74.85;98954.23;4342937;81;21206;-83
2021/04/12 03:09:58;;;;;;;23.30;13.20;;;;;;;4.57;74.36;98957.23;4305174;81;21138;-84
2021/04/12 03:16:31;;;;;;;25.02;14.70;;;;;;;4.47;75.12;98954.17;4337238;81;21135;-83
2021/04/12 03:22:52;;;;;;;26.35;14.20;;;;;;;4.58;75.55;98951.26;4343247;81;21236;-84
2021/04/12 03:29:20;;;;;;;19.87;12.90;;;;;;;4.54;75.31;98941.64;4349211;81;21167;-83
2021/04/12 03:35:34;;;;;;;22.75;13.10;;;;;;;4.53;75.29;98948.76;4346216;80;21146;-83
2021/04/12 03:49:13;;;;;;;19.98;12.75;;;;;;;4.20;75.99;98941.22;4492393;78;21124;-84
2021/04/12 03:55:41;;;;;;;24.30;13.18;;;;;;;4.22;76.17;98945.20;4495760;78;21570;-84
2021/04/12 04:02:12;;;;;;;23.77;12.63;;;;;;;4.19;75.92;98949.93;4486305;77;21575;-83
2021/04/12 04:08:56;;;;;;;17.98;10.90;;;;;;;4.06;76.47;98952.91;4493680;78;21569;-83
2021/04/12 04:15:28;;;;;;;18.05;11.83;;;;;;;4.09;76.71;98948.17;4491979;78;21144;-84
2021/04/12 04:21:43;;;;;;;19.27;13.35;;;;;;;4.05;76.53;98950.78;4491067;78;21144;-83
2021/04/12 04:28:33;;;;;;;20.27;10.70;;;;;;;3.95;76.98;98944.96;4495418;78;22338;-84
2021/04/12 04:34:58;;;;;;;15.95;10.68;;;;;;;4.06;77.17;98950.20;4488599;78;21168;-84
2021/04/12 04:41:30;;;;;;;19.42;11.68;;;;;;;4.01;76.77;98951.20;4495761;78;21129;-84
2021/04/12 04:48:06;;;;;;;19.55;12.37;;;;;;;4.21;77.51;98959.84;4493045;78;21156;-84
2021/04/12 04:54:45;;;;;;;19.45;11.60;;;;;;;4.36;77.40;98970.08;4489042;78;21145;-84
2021/04/12 05:01:16;;;;;;;21.82;12.50;;;;;;;4.48;77.36;98969.30;4450455;78;21153;-84
2021/04/12 05:07:47;;;;;;;21.57;13.40;;;;;;;4.65;77.56;98975.91;4490212;78;21110;-85
2021/04/12 05:13:59;;;;;;;19.92;13.32;;;;;;;4.78;77.06;98974.23;4492053;78;21112;-84
2021/04/12 05:20:40;;;;;;;24.35;14.18;;;;;;;4.79;77.28;98968.25;4489920;78;21613;-84
2021/04/12 05:27:23;;;;;;;23.73;14.43;;;;;;;4.88;77.60;98975.72;4486450;78;21168;-84
2021/04/12 05:34:03;;;;;;;30.30;15.55;;;;;;;5.02;77.70;98981.60;4495309;78;21105;-84
2021/04/12 05:40:38;;;;;;;25.95;14.70;;;;;;;5.33;78.31;98983.17;4497908;78;21124;-84
2021/04/12 05:47:24;;;;;;;26.50;15.18;;;;;;;5.94;78.58;98973.81;4485137;78;21557;-84
2021/04/12 05:53:54;;;;;;;25.90;15.63;;;;;;;6.53;78.59;98976.59;4484371;78;21148;-84
2021/04/12 06:00:13;;;;;;;25.55;15.28;;;;;;;6.95;77.96;98975.55;4483748;77;21137;-84
2021/04/12 06:06:49;;;;;;;23.22;14.98;;;;;;;7.40;78.26;98971.22;4492640;78;21806;-84
2021/04/12 06:13:19;;;;;;;37.88;19.62;;;;;;;7.98;78.29;98970.17;4497280;78;21463;-85
2021/04/12 06:20:15;;;;;;;23.90;15.45;;;;;;;8.49;77.69;98970.03;4497840;78;21121;-85
2021/04/12 06:26:34;;;;;;;30.57;15.75;;;;;;;9.38;77.53;98972.55;4497509;78;21161;-85
2021/04/12 06:33:10;;;;;;;24.43;14.75;;;;;;;10.52;76.34;98968.20;4496251;78;21099;-83
2021/04/12 06:39:58;;;;;;;16.97;10.65;;;;;;;11.40;74.84;98971.75;4479101;78;21594;-83
2021/04/12 06:46:37;;;;;;;;;;;;;;;12.13;74.04;98970.84;4501319;78;21153;-83
2021/04/12 06:53:24;;;;;;;16.93;9.28;;;;;;;12.79;72.79;98981.05;4489626;78;20492;-85
2021/04/12 07:00:05;;;;;;;18.45;10.08;;;;;;;13.17;71.55;98985.24;4493952;78;21167;-86
2021/04/12 07:06:45;;;;;;;22.37;11.57;;;;;;;13.12;70.73;98984.86;4493379;78;21193;-83
2021/04/12 07:13:30;;;;;;;31.48;15.58;;;;;;;13.25;70.44;98988.19;4496298;78;21223;-86
2021/04/12 07:20:20;;;;;;;20.43;10.98;;;;;;;13.22;70.02;98985.44;4491983;78;21205;-86
2021/04/12 07:27:19;;;;;;;21.93;9.68;;;;;;;13.09;69.65;98988.39;4492725;78;21168;-85
2021/04/12 07:33:55;;;;;;;17.00;10.03;;;;;;;13.06;69.87;98989.94;4496740;78;21657;-85
2021/04/12 07:40:48;;;;;;;18.40;9.23;;;;;;;13.03;69.42;98989.95;4487180;78;21152;-86
2021/04/12 07:47:16;;;;;;;24.32;9.93;;;;;;;13.21;69.17;98994.29;4493465;78;21713;-86
2021/04/12 07:53:49;;;;;;;24.50;9.85;;;;;;;13.58;69.47;99000.75;4485892;78;21160;-85
2021/04/12 08:00:35;;;;;;;22.67;12.07;;;;;;;13.97;68.91;98995.38;4488850;78;21165;-86
2021/04/12 08:07:07;;;;;;;17.50;8.35;;;;;;;14.29;68.27;98982.93;4493421;78;21311;-86
2021/04/12 08:13:52;;;;;;;13.88;8.53;;;;;;;14.55;67.89;98991.28;4503042;78;21082;-86
2021/04/12 08:20:31;;;;;;;9.90;6.72;;;;;;;14.71;67.38;98985.48;4486416;78;21125;-87
2021/04/12 08:27:22;;;;;;;11.03;6.67;;;;;;;15.42;66.57;98986.59;4497899;78;21119;-87
2021/04/12 08:34:01;;;;;;;10.25;4.78;;;;;;;15.97;65.79;98989.81;4485970;78;21110;-85
2021/04/12 08:40:42;;;;;;;30.08;10.32;;;;;;;16.13;64.56;98994.94;4485316;78;21180;-86
2021/04/12 08:47:24;;;;;;;10.43;3.87;;;;;;;16.71;63.06;98989.74;4496514;78;21133;-86
2021/04/12 08:53:34;;;;;;;12.37;6.70;;;;;;;17.34;60.88;98993.55;4483443;78;21322;-86
2021/04/12 09:00:02;;;;;;;10.18;3.72;;;;;;;17.21;60.38;98985.05;4495594;77;21323;-85
2021/04/12 09:06:10;;;;;;;;;;;;;;;16.97;59.18;98984.23;4510813;78;21278;-87
2021/04/12 09:12:47;;;;;;;6.17;2.83;;;;;;;16.77;56.88;98988.08;4520662;78;20515;-86
2021/04/12 09:19:24;;;;;;;4.35;2.60;;;;;;;16.55;57.86;98986.79;4514479;78;21682;-89
2021/04/12 09:25:58;;;;;;;12.53;3.75;;;;;;;16.48;57.75;98990.42;4517854;78;21118;-87
2021/04/12 09:32:32;;;;;;;7.22;3.90;;;;;;;16.35;57.42;99005.17;4511316;78;21620;-86
2021/04/12 09:39:11;;;;;;;8.98;4.90;;;;;;;16.25;57.73;98993.64;4513092;78;21155;-86
2021/04/12 09:45:39;;;;;;;12.05;5.10;;;;;;;16.37;57.49;98997.23;4518894;78;21169;-86
2021/04/12 09:52:01;;;;;;;13.83;5.42;;;;;;;16.46;57.51;99000.34;4517197;78;21207;-86
2021/04/12 09:58:32;;;;;;;37.93;10.82;;;;;;;16.80;57.23;98991.39;4509766;78;21157;-87
2021/04/12 10:05:05;;;;;;;10.50;4.05;;;;;;;17.30;54.91;98996.95;4520630;78;21145;-87
2021/04/12 10:11:11;;;;;;;6.87;3.12;;;;;;;17.52;55.56;98991.30;4512802;78;21153;-85
2021/04/12 10:17:24;;;;;;;8.53;3.27;;;;;;;17.85;53.99;98998.03;4519922;78;21148;-86
2021/04/12 10:23:32;;;;;;;15.58;4.87;;;;;;;17.54;53.38;99011.03;4513551;78;21116;-87
2021/04/12 10:30:04;;;;;;;9.40;4.03;;;;;;;17.54;53.40;99011.03;4516612;77;21176;-85
2021/04/12 10:36:17;;;;;;;6.05;3.22;;;;;;;17.35;52.83;99015.27;4505361;77;21439;-86
2021/04/12 10:42:39;;;;;;;41.33;13.85;;;;;;;17.12;52.03;99014.61;4498117;78;21169;-86
2021/04/12 10:48:55;;;;;;;9.43;3.55;;;;;;;16.87;52.10;99023.07;4505516;78;21404;-87
2021/04/12 10:55:13;;;;;;;10.35;3.58;;;;;;;16.85;52.06;99017.95;4513138;78;21129;-86
2021/04/12 11:01:38;;;;;;;6.92;3.20;;;;;;;16.79;51.97;99018.83;4501750;77;21478;-86
2021/04/12 11:08:05;;;;;;;5.67;2.95;;;;;;;16.90;51.57;99021.64;4503616;78;21176;-86
2021/04/12 11:14:26;;;;;;;10.08;3.55;;;;;;;17.10;51.53;99016.24;4514888;78;21077;-86
2021/04/12 11:20:42;;;;;;;9.35;4.35;;;;;;;17.33;51.01;99021.02;4513645;78;21148;-86
2021/04/12 11:27:27;;;;;;;7.43;4.27;;;;;;;17.71;50.61;99021.03;4521464;77;21759;-85
2021/04/12 11:33:46;;;;;;;10.35;4.75;;;;;;;18.63;49.83;99023.65;4519841;78;21165;-86
2021/04/12 11:39:59;;;;;;;10.35;4.62;;;;;;;19.34;48.84;99020.13;4518022;77;21571;-86
2021/04/12 11:46:27;;;;;;;8.00;4.95;;;;;;;19.65;48.10;99024.91;4504982;78;21132;-85
2021/04/12 11:52:40;;;;;;;8.40;4.67;;;;;;;19.95;47.13;99030.06;4487047;78;21306;-86
2021/04/12 11:58:46;;;;;;;10.32;5.70;;;;;;;20.12;46.61;99030.83;4486966;78;21144;-86
2021/04/12 12:04:56;;;;;;;11.53;5.40;;;;;;;20.07;46.96;99027.19;4493582;78;21156;-86
2021/04/12 12:11:11;;;;;;;8.68;4.55;;;;;;;20.08;46.85;99028.14;4488220;78;21463;-86
2021/04/12 12:17:20;;;;;;;11.57;4.95;;;;;;;20.23;46.21;99031.96;4463502;78;21570;-85
2021/04/12 12:23:53;;;;;;;7.50;4.53;;;;;;;20.44;45.73;99032.78;4485610;78;21152;-86
2021/04/12 12:30:33;;;;;;;7.62;3.83;;;;;;;20.15;45.24;99037.69;4504535;78;21133;-86
2021/04/12 12:37:00;;;;;;;8.98;4.75;;;;;;;20.01;43.18;99026.92;4486920;77;21621;-85
2021/04/12 12:43:10;;;;;;;5.70;3.92;;;;;;;19.85;45.02;99024.19;4486378;78;21137;-86
2021/04/12 12:49:27;;;;;;;5.35;3.22;;;;;;;19.94;45.04;99025.73;4492653;77;21169;-86
2021/04/12 12:55:34;;;;;;;9.40;4.28;;;;;;;19.95;44.45;99028.67;4496828;78;21771;-86
2021/04/12 13:01:39;;;;;;;8.38;4.30;;;;;;;20.00;43.70;99028.75;4491478;78;21144;-85
2021/04/12 13:07:41;;;;;;;6.95;3.67;;;;;;;19.82;43.75;99032.02;4447747;78;21184;-85
2021/04/12 13:13:44;;;;;;;7.40;3.37;;;;;;;19.59;43.44;99023.84;4466813;79;21203;-86
2021/04/12 13:19:51;;;;;;;5.67;3.27;;;;;;;19.27;43.55;99021.62;4316643;80;35523;-85
2021/04/12 13:25:56;;;;;;;5.80;3.20;;;;;;;19.26;43.58;99024.24;4072516;85;21342;-86
2021/04/12 13:32:11;;;;;;;12.78;4.08;;;;;;;19.72;43.35;99028.09;4063945;83;24553;-86
2021/04/12 13:38:18;;;;;;;8.25;3.77;;;;;;;19.87;43.18;99034.87;4053034;86;21176;-86
2021/04/12 13:44:32;;;;;;;7.65;3.90;;;;;;;19.88;42.93;99030.86;4496575;77;23038;-86
2021/04/12 13:51:07;;;;;;;8.23;3.50;;;;;;;19.25;42.51;99040.10;4417453;78;21153;-86
2021/04/12 13:57:43;;;;;;;5.50;3.15;;;;;;;18.87;43.15;99034.80;4418855;78;21193;-86
2021/04/12 14:04:04;;;;;;;6.55;4.28;;;;;;;18.71;42.87;99033.39;4336459;81;21208;-86
2021/04/12 14:10:29;;;;;;;5.85;3.35;;;;;;;18.50;43.43;99031.03;4282873;81;21205;-86
2021/04/12 14:16:35;;;;;;;7.42;3.50;;;;;;;18.54;43.41;99034.53;4250896;81;21609;-87
2021/04/12 14:22:50;;;;;;;9.37;3.80;;;;;;;18.43;43.44;99036.73;4301606;81;21182;-86
2021/04/12 14:28:55;;;;;;;7.20;4.40;;;;;;;18.50;42.92;99043.52;4297028;81;21224;-86
2021/04/12 14:35:42;;;;;;;6.42;4.05;;;;;;;18.53;43.33;99051.77;4309712;81;21198;-86
2021/04/12 14:42:06;;;;;;;8.97;5.20;;;;;;;18.84;43.74;99049.53;4282907;81;21227;-87
2021/04/12 14:48:25;;;;;;;9.20;4.80;;;;;;;18.87;43.09;99045.90;4254686;83;21640;-86
2021/04/12 14:54:38;;;;;;;8.78;4.62;;;;;;;18.47;43.53;99046.55;4256596;83;21599;-85
2021/04/12 15:00:46;;;;;;;14.90;5.53;;;;;;;18.24;43.96;99047.17;4355429;80;21626;-86
2021/04/12 15:07:01;;;;;;;11.78;6.17;;;;;;;18.11;43.80;99053.93;4362857;81;21585;-87
2021/04/12 15:13:34;;;;;;;13.15;6.15;;;;;;;18.01;43.84;99057.66;4214958;84;21205;-86
2021/04/12 15:20:01;;;;;;;22.45;14.68;;;;;;;17.94;44.54;99055.03;4211787;83;21249;-86
2021/04/12 15:26:08;;;;;;;20.05;12.95;;;;;;;17.97;45.14;99065.27;4365091;81;21153;-85
2021/04/12 15:32:24;;;;;;;20.17;13.35;;;;;;;17.87;45.46;99070.99;4351208;80;21712;-85
2021/04/12 15:38:30;;;;;;;23.32;12.90;;;;;;;17.57;45.93;99078.77;4331864;81;21183;-86
2021/04/12 15:44:40;;;;;;;23.22;14.47;;;;;;;17.26;46.48;99076.47;4347881;80;21180;-86
2021/04/12 15:50:46;;;;;;;22.15;13.72;;;;;;;17.00;47.05;99095.39;4346455;81;21172;-87
2021/04/12 15:56:59;;;;;;;23.27;13.43;;;;;;;16.64;48.33;99115.58;4344268;81;21200;-85
2021/04/12 16:03:15;;;;;;;19.75;13.08;;;;;;;16.19;48.97;99130.03;4344123;80;21148;-85
2021/04/12 16:09:33;;;;;;;21.33;12.18;;;;;;;15.71;49.77;99154.06;4342365;81;21203;-85
2021/04/12 16:15:41;;;;;;;24.67;12.40;;;;;;;15.27;50.82;99156.08;4117315;84;23473;-85
2021/04/12 16:22:04;;;;;;;22.45;12.15;;;;;;;14.87;51.85;99160.00;3986370;88;21474;-86
2021/04/12 16:28:32;;;;;;;21.87;13.40;;;;;;;14.54;52.41;99181.94;4025843;87;21365;-86
2021/04/12 16:34:35;;;;;;;21.15;12.88;;;;;;;14.29;53.16;99192.78;4072279;86;21518;-86
2021/04/12 16:41:00;;;;;;;23.60;14.38;;;;;;;13.98;54.00;99197.86;4086958;84;21185;-85
2021/04/12 16:47:06;;;;;;;21.80;13.38;;;;;;;13.70;54.38;99201.95;4157098;84;21521;-91
2021/04/12 16:53:22;;;;;;;25.40;14.70;;;;;;;13.40;55.10;99213.88;4187187;84;21591;-91
2021/04/12 16:59:43;;;;;;;19.90;14.05;;;;;;;13.08;55.99;99224.52;4192699;84;21206;-92
2021/04/12 17:06:02;;;;;;;21.33;13.60;;;;;;;12.79;56.39;99248.30;4163909;84;21645;-93
2021/04/12 17:12:16;;;;;;;24.40;15.48;;;;;;;12.59;57.20;99260.13;4134965;84;21138;-91
2021/04/12 17:18:30;;;;;;;23.62;16.75;;;;;;;12.33;57.52;99267.19;4167962;84;21169;-93
2021/04/12 17:24:36;;;;;;;22.00;14.40;;;;;;;12.06;58.15;99281.42;4177297;84;21176;-91
2021/04/12 17:30:50;;;;;;;23.67;16.17;;;;;;;11.83;58.90;99282.18;4144158;84;21740;-91
2021/04/12 17:37:16;;;;;;;24.30;17.82;;;;;;;11.67;59.76;99281.03;4533724;77;23359;-89
2021/04/12 17:43:28;;;;;;;27.32;16.82;;;;;;;11.39;59.92;99299.86;4486003;78;21137;-91
2021/04/12 17:50:07;;;;;;;31.35;20.80;;;;;;;11.24;60.52;99306.33;4512509;78;21114;-94
2021/04/12 17:56:20;;;;;;;28.25;18.62;;;;;;;11.12;60.50;99318.09;4463775;78;21590;-94
2021/04/12 18:02:27;;;;;;;32.13;20.35;;;;;;;10.91;60.96;99329.53;4471280;80;21180;-91
2021/04/12 18:08:46;;;;;;;34.05;22.50;;;;;;;10.71;61.60;99338.41;4506903;78;21146;-93
2021/04/12 18:15:26;;;;;;;39.95;26.02;;;;;;;10.50;62.24;99341.38;4455170;80;21126;-91
2021/04/12 18:21:50;;;;;;;41.75;26.65;;;;;;;10.36;62.52;99348.78;4449166;78;21158;-93
2021/04/12 18:28:21;;;;;;;39.00;26.45;;;;;;;9.99;63.01;99362.70;4450740;79;21142;-92
2021/04/12 18:34:49;;;;;;;44.58;26.75;;;;;;;9.82;63.55;99374.69;4466681;79;21149;-93
2021/04/12 18:41:16;;;;;;;44.35;28.20;;;;;;;9.74;63.86;99387.40;4484913;79;21694;-91
2021/04/12 18:48:05;;;;;;;48.10;29.77;;;;;;;9.66;64.15;99395.83;4550576;78;21087;-93
2021/04/12 18:54:22;;;;;;;44.88;28.50;;;;;;;9.58;64.24;99398.41;4556392;78;21184;-92
2021/04/12 19:01:00;;;;;;;48.50;30.60;;;;;;;9.56;64.40;99399.92;4489877;78;21150;-92
2021/04/12 19:07:54;;;;;;;43.02;27.42;;;;;;;9.45;64.59;99416.09;4480040;79;21174;-94
2021/04/12 19:14:07;;;;;;;53.75;29.52;;;;;;;9.43;64.94;99418.39;4486488;78;21139;-92
2021/04/12 19:20:33;;;;;;;49.08;29.67;;;;;;;9.42;65.21;99440.61;4469644;78;21149;-92
2021/04/12 19:27:08;;;;;;;53.78;32.20;;;;;;;9.32;65.07;99441.94;4499296;78;21707;-91
2021/04/12 19:33:42;;;;;;;55.05;32.38;;;;;;;8.95;65.58;99427.02;4474000;79;21171;-94
2021/04/12 19:40:00;;;;;;;58.95;33.65;;;;;;;8.69;66.23;99436.30;4443573;79;21783;-92
2021/04/12 19:46:08;;;;;;;46.37;30.23;;;;;;;8.71;66.45;99458.58;4464253;79;21133;-90
2021/04/12 19:52:25;;;;;;;58.17;32.25;;;;;;;8.56;66.61;99457.20;4452343;79;21180;-90
2021/04/12 19:58:55;;;;;;;55.53;32.47;;;;;;;8.35;67.14;99456.66;4454581;79;21524;-91
2021/04/12 20:05:33;;;;;;;49.03;30.73;;;;;;;8.22;67.52;99463.27;4486595;79;21163;-92
2021/04/12 20:11:55;;;;;;;54.48;30.05;;;;;;;8.13;67.82;99464.77;4465888;79;21157;-92
2021/04/12 20:18:05;;;;;;;49.05;29.87;;;;;;;7.98;68.08;99481.88;4464717;79;21560;-93
2021/04/12 20:24:15;;;;;;;57.10;32.58;;;;;;;7.87;68.53;99482.13;4463556;79;21589;-92
2021/04/12 20:30:43;;;;;;;50.75;29.37;;;;;;;7.81;68.75;99483.52;4458888;79;21128;-91
2021/04/12 20:37:18;;;;;;;50.03;28.73;;;;;;;7.59;69.06;99477.20;4494865;78;21515;-91
2021/04/12 20:44:02;;;;;;;52.90;29.95;;;;;;;7.45;69.38;99489.83;4491561;78;21738;-92
2021/04/12 20:50:18;;;;;;;61.05;32.30;;;;;;;7.39;69.81;99505.37;4482661;78;21126;-93
2021/04/12 20:56:46;;;;;;;54.15;30.50;;;;;;;7.22;70.03;99498.22;4511491;78;21150;-91
2021/04/12 21:02:53;;;;;;;58.55;31.93;;;;;;;7.25;70.34;99505.70;4504388;78;21154;-91
2021/04/12 21:09:24;;;;;;;54.08;31.68;;;;;;;7.24;70.47;99502.77;4493664;78;21105;-92
2021/04/12 21:15:46;;;;;;;51.92;29.72;;;;;;;7.13;70.95;99504.91;4500954;78;21150;-92
2021/04/12 21:21:51;;;;;;;48.78;27.62;;;;;;;7.03;71.00;99513.53;4517202;78;21129;-92
2021/04/12 21:28:21;;;;;;;49.15;28.90;;;;;;;6.95;71.53;99516.59;4476573;78;21142;-92
2021/04/12 21:34:37;;;;;;;48.48;28.92;;;;;;;6.94;71.50;99517.70;4474641;78;21153;-92
2021/04/12 21:40:42;;;;;;;44.60;26.90;;;;;;;6.92;71.64;99523.27;4487452;78;21133;-93
2021/04/12 21:46:48;;;;;;;42.30;25.25;;;;;;;6.98;71.94;99533.61;4487914;78;21176;-91
2021/04/12 21:53:17;;;;;;;45.20;26.55;;;;;;;6.76;71.88;99531.85;4461618;78;21578;-92
2021/04/12 21:59:45;;;;;;;46.98;28.40;;;;;;;6.69;72.10;99547.36;4478801;78;21848;-93
2021/04/12 22:05:55;;;;;;;51.35;30.12;;;;;;;6.63;72.22;99546.54;4482021;78;21169;-92
2021/04/12 22:12:33;;;;;;;53.33;32.45;;;;;;;6.51;72.96;99558.19;4492871;78;21715;-90
2021/04/12 22:18:46;;;;;;;52.23;32.03;;;;;;;6.41;73.27;99568.11;4480647;78;21146;-89
2021/04/12 22:25:08;;;;;;;50.15;30.10;;;;;;;6.28;73.37;99577.33;4498663;78;21575;-89
2021/04/12 22:44:34;;;;;;;47.55;29.57;;;;;;;6.01;74.21;99592.24;4483156;78;21117;-90
2021/04/12 22:50:58;;;;;;;42.65;26.80;;;;;;;6.07;74.19;99604.53;4493118;78;21187;-90
2021/04/12 23:03:35;;;;;;;31.00;18.80;;;;;;;6.08;74.30;99608.03;4490915;78;21110;-90
2021/04/12 23:09:59;;;;;;;28.92;16.30;;;;;;;5.92;74.49;99607.04;4492340;78;21148;-90
2021/04/12 23:16:22;;;;;;;28.30;15.98;;;;;;;5.83;74.37;99607.08;4551590;78;21161;-91
2021/04/12 23:22:40;;;;;;;26.33;16.55;;;;;;;5.71;74.28;99611.59;4492139;78;21172;-91
2021/04/12 23:28:46;;;;;;;26.68;17.05;;;;;;;5.68;74.66;99613.05;4470770;78;21174;-93
2021/04/12 23:34:49;;;;;;;24.97;16.07;;;;;;;5.64;74.60;99614.01;4442344;79;21170;-88
2021/04/12 23:41:04;;;;;;;23.12;15.05;;;;;;;5.55;74.76;99615.42;4470809;80;21154;-89
2021/04/12 23:47:13;;;;;;;25.95;16.65;;;;;;;5.53;74.71;99619.02;4470322;80;21641;-90
2021/04/12 23:53:35;;;;;;;25.17;18.52;;;;;;;5.53;74.71;99622.32;4526239;78;21169;-91
2021/04/12 23:59:40;;;;;;;23.70;16.27;;;;;;;5.26;75.07;99616.73;4551227;78;21153;-89
